Time;durP1;ratioP1;P1;durP2;ratioP2;P2;SDS_P1;SDS_P2;PMS_P1;PMS_P2;Temp;Humidity;BMP_temperature;BMP_pressure;BME280_temperature;BME280_humidity;BME280_pressure;Samples;Min_cycle;Max_cycle;Signal;HPM_P1;HPM_P2
2022/03/03 00:01:17;;;;;;;66.43;32.33;;;7.90;99.90;;;;;;5037161;28;20726;-63
2022/03/03 00:03:42;;;;;;;77.50;34.17;;;7.80;99.90;;;;;;5050982;28;20300;-63
2022/03/03 00:06:08;;;;;;;69.97;33.67;;;7.90;99.90;;;;;;5035565;28;20181;-63
2022/03/03 00:08:34;;;;;;;74.17;33.97;;;7.90;99.90;;;;;;5040230;28;20203;-64
2022/03/03 00:11:00;;;;;;;81.73;36.07;;;;;;;;;;5029336;28;20166;-64
2022/03/03 00:13:26;;;;;;;74.17;36.83;;;8.00;99.90;;;;;;5030850;28;20185;-64
2022/03/03 00:15:52;;;;;;;75.20;34.57;;;8.00;99.90;;;;;;5028841;28;20166;-63
2022/03/03 00:18:17;;;;;;;79.13;36.20;;;8.00;99.90;;;;;;5030598;28;20235;-63
2022/03/03 00:20:43;;;;;;;71.00;35.13;;;8.00;99.90;;;;;;5030667;28;20170;-63
2022/03/03 00:23:08;;;;;;;73.70;37.43;;;8.00;99.90;;;;;;5030602;28;20198;-64
2022/03/03 00:25:34;;;;;;;73.87;36.57;;;8.00;99.90;;;;;;5030804;28;20174;-65
2022/03/03 00:28:03;;;;;;;78.97;37.33;;;8.10;99.90;;;;;;5039439;28;20184;-65
2022/03/03 00:30:29;;;;;;;80.90;36.17;;;8.10;99.90;;;;;;5039994;28;20202;-65
2022/03/03 00:32:55;;;;;;;72.70;36.97;;;8.10;99.90;;;;;;5029624;28;20232;-65
2022/03/03 00:35:20;;;;;;;82.80;38.13;;;8.00;99.90;;;;;;5030495;28;20170;-65
2022/03/03 00:37:46;;;;;;;76.37;38.80;;;8.10;99.90;;;;;;5034096;28;20230;-64
2022/03/03 00:40:12;;;;;;;86.43;39.00;;;8.10;99.90;;;;;;5030556;28;20189;-64
2022/03/03 00:42:38;;;;;;;75.87;37.23;;;8.10;99.90;;;;;;5031080;28;20236;-63
2022/03/03 00:45:06;;;;;;;74.10;35.97;;;8.20;99.90;;;;;;5030693;28;20228;-63
2022/03/03 00:47:32;;;;;;;78.00;39.30;;;8.20;99.90;;;;;;5040555;28;20185;-63
2022/03/03 00:49:58;;;;;;;82.70;38.70;;;8.20;99.90;;;;;;5029607;28;20181;-63
2022/03/03 00:52:24;;;;;;;79.13;37.30;;;8.20;99.90;;;;;;5030642;28;20252;-63
2022/03/03 00:54:49;;;;;;;79.33;38.73;;;8.20;99.90;;;;;;5048958;28;20260;-63
2022/03/03 00:57:15;;;;;;;84.07;37.90;;;8.20;99.90;;;;;;5032467;28;20174;-64
2022/03/03 00:59:41;;;;;;;82.50;38.73;;;8.20;99.90;;;;;;5033895;28;20169;-64
2022/03/03 01:02:06;;;;;;;78.87;37.73;;;8.20;99.90;;;;;;5033106;28;20209;-64
2022/03/03 01:04:32;;;;;;;80.00;39.10;;;8.20;99.90;;;;;;5034236;28;20185;-63
2022/03/03 01:06:58;;;;;;;76.77;37.47;;;8.20;99.90;;;;;;5045008;28;20268;-64
2022/03/03 01:09:24;;;;;;;70.40;34.20;;;8.20;99.90;;;;;;5038627;28;20208;-63
2022/03/03 01:11:49;;;;;;;71.57;31.33;;;8.20;99.90;;;;;;5033980;28;20247;-63
2022/03/03 01:14:21;;;;;;;78.43;37.50;;;8.20;99.90;;;;;;5042661;28;20267;-63
2022/03/03 01:16:47;;;;;;;79.20;38.77;;;8.20;99.90;;;;;;5048801;28;20513;-64
2022/03/03 01:19:13;;;;;;;76.63;36.70;;;8.20;99.90;;;;;;5030082;28;20182;-64
2022/03/03 01:21:39;;;;;;;74.37;38.17;;;8.20;99.90;;;;;;5030878;28;20261;-63
2022/03/03 01:24:05;;;;;;;80.63;38.97;;;8.20;99.90;;;;;;5029885;28;20256;-63
2022/03/03 01:26:30;;;;;;;78.47;38.00;;;8.20;99.90;;;;;;5030146;28;20182;-63
2022/03/03 01:28:56;;;;;;;80.13;37.93;;;8.20;99.90;;;;;;5033486;28;20640;-62
2022/03/03 01:31:22;;;;;;;81.33;38.87;;;8.20;99.90;;;;;;5047192;28;20176;-62
2022/03/03 01:33:47;;;;;;;82.27;39.17;;;8.20;99.90;;;;;;5042270;28;20641;-63
2022/03/03 01:36:13;;;;;;;82.50;38.07;;;8.20;99.90;;;;;;5033544;28;20174;-64
2022/03/03 01:38:39;;;;;;;74.23;37.90;;;;;;;;;;5030275;28;20537;-64
2022/03/03 01:41:05;;;;;;;83.87;38.57;;;;;;;;;;5029652;28;20206;-63
2022/03/03 01:43:31;;;;;;;79.50;39.70;;;8.20;99.90;;;;;;5035368;28;20738;-63
2022/03/03 01:45:57;;;;;;;81.30;39.30;;;8.20;99.90;;;;;;5041651;28;20190;-63
2022/03/03 01:48:22;;;;;;;81.27;39.27;;;8.20;99.90;;;;;;5034413;28;20232;-63
2022/03/03 01:50:49;;;;;;;81.63;40.47;;;8.30;99.90;;;;;;5033767;28;20181;-63
2022/03/03 01:53:15;;;;;;;78.60;39.07;;;8.30;99.90;;;;;;5041996;28;20180;-65
2022/03/03 01:55:41;;;;;;;84.30;38.87;;;8.30;99.90;;;;;;5034170;28;20264;-65
2022/03/03 01:58:07;;;;;;;73.80;37.10;;;8.30;99.90;;;;;;5035320;28;20188;-63
2022/03/03 02:00:32;;;;;;;83.07;38.60;;;8.30;99.90;;;;;;5032847;28;20240;-63
2022/03/03 02:03:00;;;;;;;82.17;39.47;;;8.30;99.90;;;;;;5037693;28;20210;-63
2022/03/03 02:05:27;;;;;;;70.13;36.87;;;8.30;99.90;;;;;;5037812;28;20169;-63
2022/03/03 02:07:53;;;;;;;73.03;36.73;;;8.30;99.90;;;;;;5047189;28;20166;-63
2022/03/03 02:10:18;;;;;;;78.70;36.60;;;8.30;99.90;;;;;;5046742;28;20571;-65
2022/03/03 02:12:44;;;;;;;75.30;37.43;;;8.30;99.90;;;;;;5044033;28;20271;-64
2022/03/03 02:15:17;;;;;;;76.93;37.73;;;8.30;99.90;;;;;;5033480;28;20581;-64
2022/03/03 02:17:43;;;;;;;74.87;37.77;;;8.30;99.90;;;;;;5049329;28;20185;-64
2022/03/03 02:20:18;;;;;;;79.73;38.77;;;8.60;99.90;;;;;;5033293;28;20201;-64
2022/03/03 02:22:44;;;;;;;71.70;37.20;;;8.30;99.90;;;;;;5032604;28;20588;-65
2022/03/03 02:25:10;;;;;;;77.80;37.20;;;8.30;99.90;;;;;;5033535;28;20182;-64
2022/03/03 02:27:36;;;;;;;78.10;38.07;;;8.30;99.90;;;;;;5032238;28;20213;-64
2022/03/03 02:30:02;;;;;;;81.33;38.20;;;8.40;99.90;;;;;;5033360;28;20205;-64
2022/03/03 02:32:27;;;;;;;78.17;37.53;;;8.40;99.90;;;;;;5047187;28;20199;-64
2022/03/03 02:34:53;;;;;;;84.03;38.37;;;8.30;99.90;;;;;;5044631;28;20185;-64
2022/03/03 02:37:18;;;;;;;78.97;38.53;;;7.80;99.90;;;;;;5051240;28;20182;-65
2022/03/03 02:39:44;;;;;;;76.20;37.90;;;8.40;99.90;;;;;;5040205;28;20185;-64
2022/03/03 02:42:10;;;;;;;84.40;40.83;;;8.30;99.90;;;;;;5031161;28;20218;-63
2022/03/03 02:44:36;;;;;;;87.43;40.17;;;8.40;99.90;;;;;;5032956;28;20173;-63
2022/03/03 02:47:01;;;;;;;83.60;39.90;;;8.40;99.90;;;;;;5036368;28;20186;-64
2022/03/03 02:49:27;;;;;;;79.30;39.70;;;8.40;99.90;;;;;;5046723;28;20231;-64
2022/03/03 02:51:53;;;;;;;91.93;41.93;;;8.40;99.90;;;;;;5033356;28;20528;-64
2022/03/03 02:54:18;;;;;;;84.17;40.53;;;8.40;99.90;;;;;;5031614;28;20201;-64
2022/03/03 02:59:28;;;;;;;90.07;42.10;;;8.40;99.90;;;;;;5049642;28;20330;-64
2022/03/03 03:01:54;;;;;;;84.63;41.43;;;8.30;99.90;;;;;;5037267;28;20213;-65
2022/03/03 03:04:19;;;;;;;83.60;42.23;;;8.40;99.90;;;;;;5035028;28;20523;-65
2022/03/03 03:06:45;;;;;;;92.73;42.87;;;8.40;99.90;;;;;;5047491;28;20180;-64
2022/03/03 03:09:11;;;;;;;96.13;43.30;;;8.40;99.90;;;;;;5033133;28;20641;-64
2022/03/03 03:11:36;;;;;;;91.63;43.90;;;8.40;99.90;;;;;;5032663;28;20166;-64
2022/03/03 03:14:02;;;;;;;91.77;42.57;;;8.40;99.90;;;;;;5037596;28;20280;-62
2022/03/03 03:16:28;;;;;;;90.53;45.13;;;8.40;99.90;;;;;;5051771;28;20216;-63
2022/03/03 03:18:53;;;;;;;99.00;44.50;;;8.40;99.90;;;;;;5049654;28;20655;-63
2022/03/03 03:21:19;;;;;;;96.03;44.73;;;8.40;99.90;;;;;;5031872;28;20182;-63
2022/03/03 03:23:44;;;;;;;97.93;44.20;;;8.40;99.90;;;;;;5028840;28;20213;-63
2022/03/03 03:26:10;;;;;;;90.57;44.40;;;8.40;99.90;;;;;;5031100;28;20178;-62
2022/03/03 03:28:36;;;;;;;94.03;44.00;;;8.40;99.90;;;;;;5030577;28;20178;-62
2022/03/03 03:31:01;;;;;;;91.97;43.77;;;8.40;99.90;;;;;;5030817;28;20259;-62
2022/03/03 03:33:27;;;;;;;91.87;43.43;;;;;;;;;;5031011;28;20637;-62
2022/03/03 03:35:53;;;;;;;93.80;43.53;;;8.50;99.90;;;;;;5034792;28;20244;-62
2022/03/03 03:38:18;;;;;;;89.70;43.10;;;8.50;99.90;;;;;;5040540;28;20182;-63
2022/03/03 03:40:45;;;;;;;97.47;43.83;;;8.50;99.90;;;;;;5029826;28;20177;-64
2022/03/03 03:43:11;;;;;;;86.70;43.27;;;8.50;99.90;;;;;;5030337;28;20753;-64
2022/03/03 03:45:37;;;;;;;95.43;44.10;;;8.40;99.90;;;;;;5031298;28;20172;-64
2022/03/03 03:48:03;;;;;;;99.83;44.57;;;8.40;99.90;;;;;;5041776;28;20583;-61
2022/03/03 03:50:28;;;;;;;96.23;45.50;;;8.50;99.90;;;;;;5045425;28;20568;-61
2022/03/03 03:52:54;;;;;;;93.13;44.87;;;8.50;99.90;;;;;;5030573;28;20544;-63
2022/03/03 03:55:20;;;;;;;101.00;45.03;;;8.50;99.90;;;;;;5041978;28;20181;-63
2022/03/03 03:57:46;;;;;;;99.27;44.70;;;8.40;99.90;;;;;;5050159;28;20185;-63
2022/03/03 04:00:14;;;;;;;101.00;47.10;;;8.40;99.90;;;;;;5050315;28;20691;-63
2022/03/03 04:02:43;;;;;;;100.50;45.60;;;8.40;99.90;;;;;;5033562;28;20285;-63
2022/03/03 04:05:10;;;;;;;111.40;46.93;;;8.40;99.90;;;;;;5029136;28;20218;-63
2022/03/03 04:07:37;;;;;;;105.93;48.23;;;8.40;99.90;;;;;;5029636;28;20262;-62
2022/03/03 04:10:03;;;;;;;102.13;46.57;;;8.40;99.90;;;;;;5030859;28;20235;-62
2022/03/03 04:12:29;;;;;;;110.93;49.90;;;8.40;99.90;;;;;;5030893;28;20170;-62
2022/03/03 04:14:55;;;;;;;111.10;51.03;;;8.40;99.90;;;;;;5029985;28;20212;-62
2022/03/03 04:17:20;;;;;;;115.13;49.87;;;9.00;99.90;;;;;;5032205;28;20656;-62
2022/03/03 04:19:46;;;;;;;109.53;49.67;;;8.10;99.90;;;;;;5040158;28;20182;-62
2022/03/03 04:22:12;;;;;;;107.47;50.13;;;8.30;99.90;;;;;;5030601;28;20208;-64
2022/03/03 04:24:37;;;;;;;107.60;49.30;;;8.30;99.90;;;;;;5029162;28;20186;-63
2022/03/03 04:27:04;;;;;;;105.43;48.17;;;8.30;99.90;;;;;;5030774;28;20592;-64
2022/03/03 04:29:30;;;;;;;111.80;50.60;;;8.30;99.90;;;;;;5030128;28;20208;-63
2022/03/03 04:31:57;;;;;;;116.93;53.37;;;8.30;99.90;;;;;;5031113;28;20210;-64
2022/03/03 04:34:25;;;;;;;109.67;50.37;;;8.30;99.90;;;;;;5033774;28;20185;-64
2022/03/03 04:36:51;;;;;;;121.23;52.87;;;8.30;99.90;;;;;;5048631;28;20650;-63
2022/03/03 04:39:17;;;;;;;114.83;50.87;;;8.30;99.90;;;;;;5049668;28;20173;-64
2022/03/03 04:41:42;;;;;;;109.80;50.60;;;8.30;99.90;;;;;;5048223;28;20177;-63
2022/03/03 04:44:08;;;;;;;110.20;51.87;;;8.30;99.90;;;;;;5030163;28;20569;-63
2022/03/03 04:46:34;;;;;;;112.27;51.67;;;8.50;99.90;;;;;;5030721;28;20174;-64
2022/03/03 04:49:01;;;;;;;121.10;52.27;;;8.30;99.90;;;;;;5046901;28;20246;-64
2022/03/03 04:51:27;;;;;;;116.93;52.23;;;8.40;99.90;;;;;;5029644;28;20196;-64
2022/03/03 04:53:53;;;;;;;114.37;51.20;;;8.40;99.90;;;;;;5036946;28;20811;-64
2022/03/03 04:56:19;;;;;;;120.57;49.70;;;8.40;99.90;;;;;;5049507;28;20185;-64
2022/03/03 04:58:45;;;;;;;120.10;52.27;;;8.40;99.90;;;;;;5039645;28;20170;-64
2022/03/03 05:01:11;;;;;;;111.27;50.47;;;8.40;99.90;;;;;;5028788;28;20177;-64
2022/03/03 05:03:37;;;;;;;114.83;49.70;;;8.40;99.90;;;;;;5029952;28;20220;-64
2022/03/03 05:06:03;;;;;;;121.13;51.57;;;8.40;99.90;;;;;;5029398;28;20203;-63
2022/03/03 05:08:29;;;;;;;112.20;50.00;;;8.40;99.90;;;;;;5030261;28;20173;-63
2022/03/03 05:10:55;;;;;;;117.63;50.53;;;8.40;99.90;;;;;;5037910;28;20651;-63
2022/03/03 05:13:21;;;;;;;109.10;49.93;;;8.40;99.90;;;;;;5050186;28;20188;-63
2022/03/03 05:15:46;;;;;;;115.50;49.20;;;8.50;99.90;;;;;;5049221;28;20176;-64
2022/03/03 05:18:13;;;;;;;114.13;50.83;;;8.50;99.90;;;;;;5049597;28;20173;-63
2022/03/03 05:20:38;;;;;;;117.33;50.47;;;8.50;99.90;;;;;;5051968;28;20181;-64
2022/03/03 05:23:05;;;;;;;117.20;51.93;;;8.50;99.90;;;;;;5053379;28;20220;-64
2022/03/03 05:25:30;;;;;;;121.03;53.20;;;8.50;99.90;;;;;;5052414;28;20176;-64
2022/03/03 05:28:00;;;;;;;128.63;53.40;;;8.50;99.90;;;;;;5053295;28;20572;-64
2022/03/03 05:30:25;;;;;;;126.37;51.90;;;8.50;99.90;;;;;;5052971;28;20569;-63
2022/03/03 05:32:51;;;;;;;126.87;54.50;;;8.50;99.90;;;;;;5053948;28;20184;-64
2022/03/03 05:35:18;;;;;;;126.13;52.63;;;8.50;99.90;;;;;;5054023;28;20813;-64
2022/03/03 05:37:48;;;;;;;129.83;55.40;;;8.50;99.90;;;;;;5053993;28;20181;-64
2022/03/03 05:40:15;;;;;;;133.30;55.30;;;8.50;99.90;;;;;;5052931;28;20248;-64
2022/03/03 05:42:41;;;;;;;129.57;54.37;;;8.50;99.90;;;;;;5052228;28;20325;-63
2022/03/03 05:45:07;;;;;;;129.57;54.40;;;8.60;99.90;;;;;;5053168;28;20671;-64
2022/03/03 05:47:33;;;;;;;130.57;55.07;;;8.50;99.90;;;;;;5052260;28;20180;-62
2022/03/03 05:50:00;;;;;;;134.73;55.30;;;8.50;99.90;;;;;;5053740;28;20644;-62
2022/03/03 05:52:27;;;;;;;130.30;53.30;;;8.50;99.90;;;;;;5053279;28;20173;-63
2022/03/03 05:54:52;;;;;;;121.77;53.90;;;8.50;99.90;;;;;;5052011;28;20264;-63
2022/03/03 05:57:24;;;;;;;128.40;54.23;;;8.50;99.90;;;;;;5052761;28;20602;-62
2022/03/03 05:59:51;;;;;;;130.40;53.10;;;8.50;99.90;;;;;;5052641;28;20220;-62
2022/03/03 06:02:18;;;;;;;125.07;55.40;;;8.60;99.90;;;;;;5051094;28;20725;-62
2022/03/03 06:04:45;;;;;;;134.83;55.90;;;8.50;99.90;;;;;;5052543;28;20192;-62
2022/03/03 06:07:15;;;;;;;125.47;52.40;;;8.70;99.90;;;;;;5052643;28;20260;-63
2022/03/03 06:09:42;;;;;;;127.43;54.27;;;8.50;99.90;;;;;;5050592;28;20216;-64
2022/03/03 06:12:21;;;;;;;122.23;52.67;;;8.50;99.90;;;;;;5052980;28;20277;-67
2022/03/03 06:14:53;;;;;;;126.73;53.67;;;8.50;99.90;;;;;;5051870;28;20180;-65
2022/03/03 06:17:22;;;;;;;127.57;53.07;;;8.50;99.90;;;;;;5084136;28;20649;-65
2022/03/03 06:19:49;;;;;;;126.80;51.10;;;8.50;99.90;;;;;;5052257;28;20166;-64
2022/03/03 06:22:15;;;;;;;130.57;55.60;;;8.50;99.90;;;;;;5052581;28;20199;-62
2022/03/03 06:24:41;;;;;;;120.20;51.87;;;8.60;99.90;;;;;;5051536;28;20219;-62
2022/03/03 06:27:08;;;;;;;118.20;52.63;;;8.70;99.90;;;;;;5052857;28;20188;-63
2022/03/03 06:29:34;;;;;;;123.90;52.67;;;8.60;99.90;;;;;;5051551;28;20806;-64
2022/03/03 06:32:00;;;;;;;115.93;50.97;;;8.60;99.90;;;;;;5051947;28;20177;-64
2022/03/03 06:34:26;;;;;;;121.27;52.70;;;9.70;99.90;;;;;;5052241;28;20256;-64
2022/03/03 06:36:52;;;;;;;117.43;52.83;;;8.60;99.90;;;;;;5052499;28;20311;-64
2022/03/03 06:39:17;;;;;;;120.80;50.37;;;8.60;99.90;;;;;;5051494;28;20231;-64
2022/03/03 06:41:44;;;;;;;112.67;49.97;;;8.60;99.90;;;;;;5051940;28;20274;-64
2022/03/03 06:44:10;;;;;;;122.87;53.37;;;8.60;99.90;;;;;;5052242;28;20212;-66
2022/03/03 06:46:36;;;;;;;129.60;51.27;;;8.60;99.90;;;;;;5049787;28;20181;-64
2022/03/03 06:49:01;;;;;;;114.40;52.47;;;8.60;99.90;;;;;;5051701;28;20192;-64
2022/03/03 06:51:29;;;;;;;124.50;52.30;;;8.60;99.90;;;;;;5051171;28;20176;-63
2022/03/03 06:53:59;;;;;;;115.00;51.23;;;8.60;99.90;;;;;;5052425;28;20180;-63
2022/03/03 06:56:29;;;;;;;112.70;50.53;;;8.60;99.90;;;;;;5051199;28;20162;-63
2022/03/03 06:59:00;;;;;;;112.73;51.20;;;8.60;99.90;;;;;;5051829;28;20332;-63
2022/03/03 07:01:29;;;;;;;122.90;51.57;;;8.60;99.90;;;;;;5050833;28;20212;-63
2022/03/03 07:03:57;;;;;;;114.60;51.60;;;8.60;99.90;;;;;;5050466;28;20696;-63
2022/03/03 07:06:23;;;;;;;120.70;51.17;;;8.60;99.90;;;;;;5051345;28;20165;-64
2022/03/03 07:08:54;;;;;;;118.53;51.60;;;8.70;99.90;;;;;;5051071;28;20617;-64
2022/03/03 07:11:21;;;;;;;117.47;51.60;;;8.60;99.90;;;;;;5051154;28;20166;-64
2022/03/03 07:13:47;;;;;;;123.93;51.90;;;8.60;99.90;;;;;;5050944;28;20169;-64
2022/03/03 07:16:13;;;;;;;120.97;51.60;;;;;;;;;;5049407;28;20580;-64
2022/03/03 07:18:42;;;;;;;123.90;53.97;;;8.60;99.90;;;;;;5052054;28;20251;-65
2022/03/03 07:21:10;;;;;;;128.97;56.30;;;8.40;99.90;;;;;;5050121;28;20161;-64
2022/03/03 07:23:38;;;;;;;127.87;52.23;;;8.70;99.90;;;;;;5050648;28;20533;-65
2022/03/03 07:26:08;;;;;;;124.53;53.63;;;8.70;99.90;;;;;;5050534;28;20173;-65
2022/03/03 07:28:34;;;;;;;111.37;51.97;;;8.70;99.90;;;;;;5038894;28;20177;-65
2022/03/03 07:31:03;;;;;;;117.63;53.00;;;8.70;99.90;;;;;;5048617;28;20193;-65
2022/03/03 07:34:01;;;;;;;120.53;53.53;;;8.70;99.90;;;;;;5044589;28;20158;-65
2022/03/03 07:36:29;;;;;;;115.27;51.03;;;8.70;99.90;;;;;;5025837;28;20493;-65
2022/03/03 07:39:02;;;;;;;124.90;54.73;;;8.70;99.90;;;;;;5029519;28;20204;-65
2022/03/03 07:41:28;;;;;;;131.83;56.23;;;8.70;99.90;;;;;;5030796;28;20211;-65
2022/03/03 07:43:56;;;;;;;117.10;53.37;;;8.70;99.90;;;;;;5029183;28;20258;-63
2022/03/03 07:46:23;;;;;;;117.07;52.60;;;8.70;99.90;;;;;;5042634;28;20602;-63
2022/03/03 07:48:51;;;;;;;114.77;50.77;;;8.70;99.90;;;;;;5048566;28;20810;-67
2022/03/03 07:51:17;;;;;;;114.90;50.67;;;8.70;99.90;;;;;;5050622;28;20165;-65
2022/03/03 07:53:43;;;;;;;111.17;50.90;;;8.70;99.90;;;;;;5049711;28;20200;-64
2022/03/03 07:56:12;;;;;;;114.03;49.00;;;8.70;99.90;;;;;;5048696;28;20185;-63
2022/03/03 07:58:44;;;;;;;111.00;48.63;;;8.80;99.90;;;;;;5046686;28;20227;-64
2022/03/03 08:01:14;;;;;;;110.53;49.67;;;8.80;99.90;;;;;;5031549;28;20174;-64
2022/03/03 08:03:45;;;;;;;107.90;50.83;;;8.90;99.90;;;;;;5039672;28;20352;-64
2022/03/03 08:06:13;;;;;;;118.57;49.53;;;8.80;99.90;;;;;;5031525;28;20609;-64
2022/03/03 08:08:39;;;;;;;111.60;52.13;;;8.90;99.90;;;;;;5040213;28;20244;-66
2022/03/03 08:11:09;;;;;;;112.03;51.73;;;8.90;99.90;;;;;;5039344;28;20178;-73
2022/03/03 08:13:35;;;;;;;112.93;50.60;;;8.90;99.90;;;;;;5031179;28;20177;-65
2022/03/03 08:16:02;;;;;;;112.20;50.27;;;;;;;;;;5031285;28;20170;-65
2022/03/03 08:18:35;;;;;;;117.30;52.43;;;8.90;99.90;;;;;;5044993;28;20177;-59
2022/03/03 08:21:02;;;;;;;113.77;51.20;;;8.90;99.90;;;;;;5046572;28;20256;-64
2022/03/03 08:23:29;;;;;;;115.63;51.87;;;9.00;99.90;;;;;;5030845;28;20711;-65
2022/03/03 08:25:56;;;;;;;105.53;49.23;;;9.00;99.90;;;;;;5030608;28;20217;-66
2022/03/03 08:28:24;;;;;;;102.33;47.60;;;9.00;99.90;;;;;;5031206;28;20249;-69
2022/03/03 08:31:03;;;;;;;106.60;48.33;;;9.10;99.90;;;;;;5029690;28;20261;-67
2022/03/03 08:33:50;;;;;;;111.17;47.63;;;9.10;99.90;;;;;;5029387;28;20178;-66
2022/03/03 08:36:30;;;;;;;106.40;45.83;;;9.00;99.90;;;;;;5030975;28;20177;-67
2022/03/03 08:39:05;;;;;;;108.67;46.67;;;9.10;99.90;;;;;;5030573;28;20173;-67
2022/03/03 08:41:36;;;;;;;101.60;46.67;;;9.10;99.90;;;;;;5031191;28;20177;-67
2022/03/03 08:44:04;;;;;;;110.13;48.27;;;9.10;99.90;;;;;;5045069;28;20212;-68
2022/03/03 08:46:33;;;;;;;105.67;48.00;;;9.20;99.90;;;;;;5050228;28;20177;-67
2022/03/03 08:49:02;;;;;;;107.47;46.23;;;9.20;99.90;;;;;;5049707;28;20589;-67
2022/03/03 08:51:28;;;;;;;97.33;45.77;;;;;;;;;;5050392;28;20206;-67
2022/03/03 08:53:54;;;;;;;111.07;46.90;;;9.20;99.90;;;;;;5050231;28;20256;-67
2022/03/03 08:56:22;;;;;;;107.87;46.30;;;9.20;99.90;;;;;;5050419;28;20181;-67
2022/03/03 08:58:48;;;;;;;100.43;44.90;;;9.30;99.90;;;;;;5050239;28;20197;-68
2022/03/03 09:01:14;;;;;;;102.30;45.23;;;9.20;99.90;;;;;;5050106;28;20644;-68
2022/03/03 09:03:40;;;;;;;106.10;45.80;;;9.30;99.90;;;;;;5050322;28;20251;-68
2022/03/03 09:06:06;;;;;;;104.67;45.50;;;9.40;99.90;;;;;;5049220;28;20162;-67
2022/03/03 09:08:32;;;;;;;110.43;45.17;;;9.40;99.90;;;;;;5050340;28;20223;-67
2022/03/03 09:10:58;;;;;;;103.80;45.33;;;9.40;99.90;;;;;;5050401;28;20174;-67
2022/03/03 09:13:24;;;;;;;106.13;46.70;;;9.40;99.90;;;;;;5049153;28;20183;-67
2022/03/03 09:15:51;;;;;;;100.53;45.53;;;9.40;99.90;;;;;;5048648;28;20257;-67
2022/03/03 09:18:16;;;;;;;96.93;44.20;;;9.40;99.90;;;;;;5048635;28;20176;-67
2022/03/03 09:20:42;;;;;;;107.97;44.93;;;9.40;99.90;;;;;;5049333;28;20268;-67
2022/03/03 09:23:08;;;;;;;102.60;43.90;;;9.50;99.90;;;;;;5034230;28;20296;-67
2022/03/03 09:25:36;;;;;;;94.57;40.00;;;9.50;99.90;;;;;;5029557;28;20612;-67
2022/03/03 09:28:03;;;;;;;94.90;40.83;;;9.50;99.90;;;;;;5029641;28;20174;-67
2022/03/03 09:30:29;;;;;;;103.00;42.40;;;9.60;99.90;;;;;;5030427;28;20166;-67
2022/03/03 09:32:55;;;;;;;98.10;42.57;;;9.60;99.90;;;;;;5030428;28;20257;-65
2022/03/03 09:35:20;;;;;;;93.57;41.07;;;9.70;99.90;;;;;;5030177;28;20526;-66
2022/03/03 09:37:46;;;;;;;95.30;41.97;;;9.70;99.90;;;;;;5030176;28;20174;-65
2022/03/03 09:40:12;;;;;;;98.47;40.80;;;9.80;99.90;;;;;;5030056;28;20166;-66
2022/03/03 09:42:38;;;;;;;88.63;39.73;;;9.80;99.90;;;;;;5028505;28;20650;-66
2022/03/03 09:45:08;;;;;;;97.03;40.03;;;9.80;99.90;;;;;;5028704;28;20672;-66
2022/03/03 09:47:36;;;;;;;92.20;39.43;;;9.80;99.90;;;;;;5029991;28;20206;-66
2022/03/03 09:50:02;;;;;;;87.57;38.57;;;9.80;99.90;;;;;;5029780;28;20257;-66
2022/03/03 09:52:28;;;;;;;95.07;39.17;;;9.80;99.90;;;;;;5029882;28;20185;-66
2022/03/03 09:54:55;;;;;;;88.83;39.10;;;9.80;99.90;;;;;;5030040;28;20173;-68
2022/03/03 09:57:21;;;;;;;86.37;37.87;;;9.80;99.90;;;;;;5030123;28;20253;-67
2022/03/03 09:59:47;;;;;;;91.50;37.67;;;9.80;99.90;;;;;;5030055;28;20260;-66
2022/03/03 10:02:14;;;;;;;86.43;36.73;;;9.90;99.90;;;;;;5029064;28;20162;-65
2022/03/03 10:04:40;;;;;;;88.00;38.40;;;9.90;99.90;;;;;;5028515;28;20181;-68
2022/03/03 10:07:08;;;;;;;81.27;35.50;;;9.90;99.90;;;;;;5030748;28;20178;-67
2022/03/03 10:09:59;;;;;;;78.90;36.07;;;10.00;99.90;;;;;;5032123;28;20184;-66
2022/03/03 10:12:22;;;;;;;85.77;36.13;;;10.00;99.90;;;;;;5032653;28;20186;-66
2022/03/03 10:14:49;;;;;;;86.23;35.23;;;10.00;99.90;;;;;;5033135;28;20178;-67
2022/03/03 10:17:15;;;;;;;85.07;36.70;;;10.10;99.90;;;;;;5032864;28;20180;-66
2022/03/03 10:19:54;;;;;;;77.00;35.23;;;10.20;99.90;;;;;;5031869;28;20699;-67
2022/03/03 10:22:48;;;;;;;83.23;34.30;;;10.30;99.90;;;;;;5032411;28;20170;-68
2022/03/03 10:25:30;;;;;;;68.93;32.50;;;10.40;99.90;;;;;;5029552;28;20871;-67
2022/03/03 10:27:56;;;;;;;75.07;34.00;;;10.40;99.90;;;;;;5031374;28;20170;-67
2022/03/03 10:30:22;;;;;;;74.23;34.53;;;10.40;99.90;;;;;;5031304;28;20232;-68
2022/03/03 10:32:48;;;;;;;74.30;32.57;;;10.50;99.90;;;;;;5031883;28;20170;-69
2022/03/03 10:35:19;;;;;;;64.57;32.80;;;10.50;99.90;;;;;;5032175;28;20174;-68
2022/03/03 10:37:46;;;;;;;63.80;32.13;;;10.40;99.90;;;;;;5032192;28;20577;-68
2022/03/03 10:40:14;;;;;;;65.07;32.00;;;10.50;99.90;;;;;;5031468;28;20176;-68
2022/03/03 10:42:47;;;;;;;65.50;31.20;;;10.50;99.90;;;;;;5029252;28;20222;-69
2022/03/03 10:45:17;;;;;;;63.70;29.33;;;10.40;99.90;;;;;;5032022;28;20177;-68
2022/03/03 10:47:58;;;;;;;54.00;26.60;;;10.40;99.90;;;;;;5031472;28;20236;-68
2022/03/03 10:50:23;;;;;;;60.90;27.60;;;10.30;99.90;;;;;;5032418;28;20180;-68
2022/03/03 10:52:49;;;;;;;64.43;30.07;;;11.30;99.90;;;;;;5032593;28;20170;-68
2022/03/03 10:55:17;;;;;;;57.00;27.23;;;10.30;99.90;;;;;;5032375;28;20165;-68
2022/03/03 10:57:57;;;;;;;55.67;27.80;;;10.30;99.90;;;;;;5031832;28;20170;-68
2022/03/03 11:00:26;;;;;;;62.00;28.60;;;10.30;99.90;;;;;;5032327;28;20174;-68
2022/03/03 11:02:54;;;;;;;58.07;28.03;;;10.40;99.90;;;;;;5032176;28;20255;-67
2022/03/03 11:05:21;;;;;;;62.00;27.47;;;10.30;99.90;;;;;;5031609;28;20162;-66
2022/03/03 11:07:49;;;;;;;52.70;26.73;;;10.40;99.90;;;;;;5031544;28;20177;-67
2022/03/03 11:10:17;;;;;;;53.83;26.37;;;10.40;99.90;;;;;;5031542;28;20189;-68
2022/03/03 11:12:43;;;;;;;56.90;25.77;;;10.50;99.90;;;;;;5031228;28;20219;-67
2022/03/03 11:15:10;;;;;;;56.40;25.97;;;10.50;99.90;;;;;;5031370;28;20632;-67
2022/03/03 11:17:36;;;;;;;53.33;26.07;;;10.60;99.90;;;;;;5030457;28;20633;-68
2022/03/03 11:20:07;;;;;;;49.30;25.67;;;10.60;99.90;;;;;;5032011;28;20174;-68
2022/03/03 11:22:33;;;;;;;49.93;24.17;;;10.60;99.90;;;;;;5031511;28;20244;-68
2022/03/03 11:25:03;;;;;;;52.33;24.07;;;10.60;99.90;;;;;;5031997;28;20185;-68
2022/03/03 11:27:34;;;;;;;40.93;22.57;;;10.60;99.90;;;;;;5031545;28;20170;-69
2022/03/03 11:30:24;;;;;;;45.30;22.67;;;10.70;99.90;;;;;;5031330;28;20568;-68
2022/03/03 11:33:28;;;;;;;41.70;20.53;;;10.70;99.90;;;;;;5030979;28;20174;-69
2022/03/03 11:36:00;;;;;;;37.90;20.60;;;10.70;99.90;;;;;;5030506;28;20243;-67
2022/03/03 11:38:44;;;;;;;40.17;19.53;;;10.70;99.90;;;;;;5030671;28;20720;-68
2022/03/03 11:41:10;;;;;;;28.63;15.67;;;10.80;99.90;;;;;;5031357;28;20164;-67
2022/03/03 11:43:57;;;;;;;26.93;14.40;;;10.80;99.90;;;;;;5031506;28;20229;-67
2022/03/03 11:46:45;;;;;;;28.03;13.53;;;10.80;99.90;;;;;;5031029;28;20232;-67
2022/03/03 11:49:15;;;;;;;23.77;13.53;;;10.90;99.90;;;;;;5031257;28;20182;-67
2022/03/03 11:51:42;;;;;;;20.77;10.63;;;10.80;99.90;;;;;;5031047;28;20280;-68
2022/03/03 11:54:09;;;;;;;27.07;13.47;;;10.80;99.90;;;;;;5030010;28;20244;-68
2022/03/03 11:56:55;;;;;;;24.83;12.83;;;10.80;99.90;;;;;;5031335;28;20178;-67
2022/03/03 11:59:32;;;;;;;24.13;11.77;;;10.90;99.90;;;;;;5029138;28;20176;-68
2022/03/03 12:01:58;;;;;;;21.37;12.40;;;;;;;;;;5030118;28;20170;-67
2022/03/03 12:04:26;;;;;;;19.70;10.10;;;11.00;99.90;;;;;;5029650;28;20233;-68
2022/03/03 12:06:54;;;;;;;16.30;9.07;;;11.00;99.90;;;;;;5035480;28;20230;-67
2022/03/03 12:09:21;;;;;;;24.73;9.60;;;11.00;99.90;;;;;;5048898;28;20187;-68
2022/03/03 12:11:47;;;;;;;16.43;7.67;;;11.00;99.90;;;;;;5040746;28;20228;-68
2022/03/03 12:14:29;;;;;;;14.10;8.30;;;11.00;99.90;;;;;;5028807;28;20527;-68
2022/03/03 12:17:34;;;;;;;10.87;6.27;;;11.00;99.90;;;;;;5029539;28;20165;-68
2022/03/03 12:20:32;;;;;;;15.73;6.97;;;10.80;99.90;;;;;;5029870;28;20174;-66
2022/03/03 12:23:24;;;;;;;13.50;6.70;;;11.00;99.90;;;;;;5032159;28;20197;-69
2022/03/03 12:25:59;;;;;;;15.07;6.40;;;10.80;99.90;;;;;;5050366;28;20177;-68
2022/03/03 12:28:39;;;;;;;11.43;5.73;;;11.10;99.90;;;;;;5050313;28;20177;-68
2022/03/03 12:31:39;;;;;;;14.47;6.67;;;11.00;99.90;;;;;;5050385;28;20169;-68
2022/03/03 12:34:07;;;;;;;13.37;5.70;;;11.00;99.90;;;;;;5050142;28;20183;-69
2022/03/03 12:36:44;;;;;;;11.87;5.87;;;11.00;99.90;;;;;;5050248;28;20264;-69
2022/03/03 12:39:10;;;;;;;13.60;6.33;;;10.90;99.90;;;;;;5048812;28;20211;-69
2022/03/03 12:41:36;;;;;;;9.97;5.23;;;11.00;99.90;;;;;;5048963;28;20192;-68